Time;durP1;ratioP1;P1;durP2;ratioP2;P2;SDS_P1;SDS_P2;PMS_P1;PMS_P2;Temp;Humidity;BMP_temperature;BMP_pressure;BME280_temperature;BME280_humidity;BME280_pressure;Samples;Min_cycle;Max_cycle;Signal;HPM_P1;HPM_P2
2023/12/28 00:01:40;;;;;;;5.30;2.87;;;;;;;3.85;100.00;100732.53;5004882;28;20497;-73
2023/12/28 00:04:06;;;;;;;4.57;2.87;;;;;;;3.85;100.00;100738.53;5005055;28;20569;-74
2023/12/28 00:06:34;;;;;;;3.57;2.60;;;;;;;3.86;100.00;100727.03;5005261;28;20205;-74
2023/12/28 00:09:01;;;;;;;7.67;2.90;;;;;;;3.87;100.00;100725.97;5003821;28;20205;-74
2023/12/28 00:11:27;;;;;;;6.83;3.00;;;;;;;3.88;100.00;100719.69;5002487;28;20280;-74
2023/12/28 00:13:53;;;;;;;7.60;3.00;;;;;;;3.89;100.00;100718.63;5017493;28;20204;-75
2023/12/28 00:16:20;;;;;;;5.73;2.87;;;;;;;3.89;100.00;100725.69;5009107;28;20410;-72
2023/12/28 00:18:46;;;;;;;6.63;3.13;;;;;;;3.90;100.00;100724.63;5006246;28;20201;-72
2023/12/28 00:21:13;;;;;;;5.83;3.30;;;;;;;3.89;100.00;100720.47;5005571;28;20319;-73
2023/12/28 00:23:40;;;;;;;8.80;3.33;;;;;;;3.89;100.00;100717.84;5003797;28;20197;-72
2023/12/28 00:26:07;;;;;;;4.57;2.80;;;;;;;3.89;100.00;100718.63;5003163;28;20192;-73
2023/12/28 00:28:33;;;;;;;4.63;2.90;;;;;;;3.88;100.00;100730.13;5004183;28;20206;-73
2023/12/28 00:31:00;;;;;;;6.80;3.50;;;;;;;3.87;100.00;100720.75;5005426;28;20228;-72
2023/12/28 00:33:26;;;;;;;8.40;3.33;;;;;;;3.85;100.00;100711.63;5001016;28;20220;-73
2023/12/28 00:35:52;;;;;;;8.60;3.93;;;;;;;3.83;100.00;100704.06;5000028;28;20221;-73
2023/12/28 00:38:19;;;;;;;7.73;3.13;;;;;;;3.81;100.00;100706.19;5001997;28;20343;-74
2023/12/28 00:40:46;;;;;;;6.77;3.47;;;;;;;3.80;100.00;100701.22;5001004;28;20231;-74
2023/12/28 00:43:13;;;;;;;8.20;2.60;;;;;;;3.81;100.00;100706.19;4999980;28;20211;-74
2023/12/28 00:45:40;;;;;;;6.60;3.00;;;;;;;3.81;100.00;100700.16;5002859;28;20213;-74
2023/12/28 00:48:07;;;;;;;5.43;3.10;;;;;;;3.80;100.00;100694.19;4995861;28;20205;-73
2023/12/28 00:50:33;;;;;;;5.40;2.90;;;;;;;3.80;100.00;100690.78;4998841;28;20494;-74
2023/12/28 00:52:59;;;;;;;7.90;3.57;;;;;;;3.81;100.00;100694.94;4996239;28;20212;-74
2023/12/28 00:55:27;;;;;;;8.57;3.00;;;;;;;3.82;100.00;100686.84;4994254;28;20213;-73
2023/12/28 00:57:55;;;;;;;6.47;2.63;;;;;;;3.82;100.00;100686.84;5001961;28;20719;-74
2023/12/28 01:00:21;;;;;;;5.17;3.20;;;;;;;3.82;100.00;100689.44;5004880;28;20263;-74
2023/12/28 01:02:49;;;;;;;5.87;3.00;;;;;;;3.82;100.00;100678.22;5001186;28;20211;-74
2023/12/28 01:05:16;;;;;;;8.17;3.03;;;;;;;3.82;100.00;100679.00;5002725;28;20211;-74
2023/12/28 01:07:43;;;;;;;5.47;2.73;;;;;;;3.81;100.00;100671.44;5001257;28;20279;-74
2023/12/28 01:10:09;;;;;;;9.73;2.73;;;;;;;3.81;100.00;100674.06;4998393;28;20224;-74
2023/12/28 01:12:35;;;;;;;6.53;3.20;;;;;;;3.80;100.00;100662.06;5002114;28;20215;-74
2023/12/28 01:15:04;;;;;;;5.60;2.47;;;;;;;3.80;100.00;100659.44;5000454;28;20197;-73
2023/12/28 01:17:30;;;;;;;7.57;3.10;;;;;;;3.80;100.00;100656.84;5002132;28;20223;-74
2023/12/28 01:19:56;;;;;;;8.30;2.90;;;;;;;3.79;100.00;100642.22;4998871;28;20224;-74
2023/12/28 01:22:23;;;;;;;4.80;3.13;;;;;;;3.79;100.00;100653.44;5001699;28;20197;-73
2023/12/28 01:24:49;;;;;;;6.70;3.10;;;;;;;3.78;100.00;100662.31;5001445;28;20579;-73
2023/12/28 01:27:16;;;;;;;6.10;3.27;;;;;;;3.79;100.00;100669.09;4996590;28;20201;-74
2023/12/28 01:29:42;;;;;;;4.57;2.40;;;;;;;3.77;100.00;100654.75;5002997;28;20221;-74
2023/12/28 01:32:10;;;;;;;8.70;2.80;;;;;;;3.76;100.00;100646.16;4997686;28;20227;-73
2023/12/28 01:34:38;;;;;;;5.07;3.00;;;;;;;3.75;100.00;100643.84;4997323;28;20204;-73
2023/12/28 01:37:05;;;;;;;5.07;2.80;;;;;;;3.73;100.00;100643.34;4997477;28;20226;-73
2023/12/28 01:39:32;;;;;;;11.63;2.70;;;;;;;3.73;100.00;100632.91;5001008;28;20229;-73
2023/12/28 01:41:58;;;;;;;8.43;3.33;;;;;;;3.73;100.00;100635.50;5000646;28;20215;-72
2023/12/28 01:44:25;;;;;;;7.20;2.70;;;;;;;3.72;100.00;100631.31;4998968;28;20193;-72
2023/12/28 01:46:52;;;;;;;6.23;3.03;;;;;;;3.70;100.00;100630.84;5003029;28;20205;-73
2023/12/28 01:49:20;;;;;;;3.37;2.30;;;;;;;3.69;100.00;100626.66;4995936;28;20213;-73
2023/12/28 01:51:46;;;;;;;6.60;2.90;;;;;;;3.67;100.00;100639.22;4997519;28;20201;-72
2023/12/28 01:54:13;;;;;;;4.73;2.50;;;;;;;3.65;100.00;100633.50;4997642;28;20197;-72
2023/12/28 01:56:40;;;;;;;5.73;3.30;;;;;;;3.63;100.00;100622.56;5002905;28;20227;-73
2023/12/28 01:59:07;;;;;;;5.03;2.60;;;;;;;3.61;100.00;100625.44;5001505;28;20327;-73
2023/12/28 02:01:34;;;;;;;5.37;2.70;;;;;;;3.60;100.00;100620.50;5002900;28;20198;-73
2023/12/28 02:04:00;;;;;;;4.77;2.37;;;;;;;3.58;100.00;100614.78;4995531;28;20837;-72
2023/12/28 02:06:28;;;;;;;3.70;2.60;;;;;;;3.56;100.00;100602.00;5003737;28;20196;-74
2023/12/28 02:08:55;;;;;;;7.33;2.80;;;;;;;3.55;100.00;100604.88;5004479;28;20196;-73
2023/12/28 02:11:21;;;;;;;4.03;2.50;;;;;;;3.54;100.00;100606.75;4999465;28;20225;-73
2023/12/28 02:13:48;;;;;;;5.07;2.63;;;;;;;3.51;100.00;100612.50;5003544;28;20209;-73
2023/12/28 02:16:20;;;;;;;3.70;2.37;;;;;;;3.50;100.00;100605.72;4998780;28;20227;-73
2023/12/28 02:18:50;;;;;;;4.20;2.47;;;;;;;3.49;100.00;100612.00;5006442;28;20203;-73
2023/12/28 02:21:18;;;;;;;5.67;2.70;;;;;;;3.47;100.00;100616.72;5006499;28;20676;-73
2023/12/28 02:23:49;;;;;;;5.50;2.20;;;;;;;3.46;100.00;100625.59;5005018;28;20204;-73
2023/12/28 02:26:16;;;;;;;4.33;1.87;;;;;;;3.46;100.00;100617.00;4999649;28;20196;-73
2023/12/28 02:28:43;;;;;;;3.20;2.27;;;;;;;3.45;100.00;100623.28;5000193;28;20279;-74
2023/12/28 02:31:18;;;;;;;4.30;2.57;;;;;;;3.43;100.00;100618.31;5003809;28;20220;-74
2023/12/28 02:33:51;;;;;;;7.43;2.57;;;;;;;3.42;100.00;100611.53;5006352;28;20279;-74
2023/12/28 02:36:22;;;;;;;3.83;2.83;;;;;;;3.42;100.00;100616.00;5002631;28;20209;-74
2023/12/28 02:38:49;;;;;;;4.03;1.87;;;;;;;3.40;100.00;100610.28;5003259;28;20216;-73
2023/12/28 02:41:18;;;;;;;2.67;2.17;;;;;;;3.39;100.00;100604.28;5003039;28;20237;-73
2023/12/28 02:43:44;;;;;;;6.23;2.50;;;;;;;3.39;100.00;100614.72;4998976;28;20208;-72
2023/12/28 02:46:11;;;;;;;3.37;1.80;;;;;;;3.40;100.00;100612.88;5003082;28;20205;-73
2023/12/28 02:48:38;;;;;;;2.87;2.17;;;;;;;3.43;100.00;100604.50;5000920;28;20206;-73
2023/12/28 02:51:04;;;;;;;2.83;2.10;;;;;;;3.44;100.00;100593.78;5001794;28;20654;-75
2023/12/28 02:53:31;;;;;;;3.83;2.10;;;;;;;3.46;100.00;100575.22;5001861;28;20202;-73
2023/12/28 02:55:57;;;;;;;3.90;2.37;;;;;;;3.48;100.00;100580.97;5006613;28;20783;-73
2023/12/28 02:58:25;;;;;;;5.67;2.30;;;;;;;3.48;100.00;100584.34;5006830;28;20232;-72
2023/12/28 03:00:51;;;;;;;3.57;2.03;;;;;;;3.51;100.00;100588.22;5000487;28;20221;-73
2023/12/28 03:03:17;;;;;;;5.07;2.00;;;;;;;3.53;100.00;100584.28;5001128;28;20572;-72
2023/12/28 03:05:44;;;;;;;3.10;1.83;;;;;;;3.54;100.00;100593.69;4998140;28;20893;-73
2023/12/28 03:08:10;;;;;;;2.67;1.80;;;;;;;3.55;100.00;100595.25;5003695;28;20228;-72
2023/12/28 03:10:36;;;;;;;4.87;2.30;;;;;;;3.59;100.00;100587.63;5002712;28;20224;-74
2023/12/28 03:13:03;;;;;;;4.53;2.13;;;;;;;3.60;100.00;100583.94;5001890;28;20208;-74
2023/12/28 03:15:31;;;;;;;2.83;1.73;;;;;;;3.62;100.00;100587.84;4999999;28;20204;-73
2023/12/28 03:17:57;;;;;;;3.90;2.00;;;;;;;3.63;100.00;100601.69;4999603;28;20219;-74
2023/12/28 03:20:23;;;;;;;4.20;2.20;;;;;;;3.67;100.00;100607.88;5006242;28;20231;-73
2023/12/28 03:22:50;;;;;;;3.20;1.73;;;;;;;3.71;100.00;100614.88;5020329;28;20208;-74
2023/12/28 03:25:16;;;;;;;1.57;1.40;;;;;;;3.75;100.00;100607.28;5002852;28;20202;-73
2023/12/28 03:27:42;;;;;;;3.60;2.00;;;;;;;3.80;100.00;100594.16;5004258;28;20213;-73
2023/12/28 03:30:10;;;;;;;2.40;1.80;;;;;;;3.86;100.00;100603.47;5000939;28;20235;-73
2023/12/28 03:32:40;;;;;;;2.70;1.80;;;;;;;3.91;100.00;100601.59;4999304;28;20289;-74
2023/12/28 03:35:07;;;;;;;3.67;2.27;;;;;;;3.97;100.00;100613.53;4999105;28;20197;-74
2023/12/28 03:37:33;;;;;;;3.40;2.17;;;;;;;4.03;100.00;100611.59;4999366;28;20214;-74
2023/12/28 03:39:59;;;;;;;4.53;1.93;;;;;;;4.09;100.00;100615.75;5004586;28;20228;-74
2023/12/28 03:42:26;;;;;;;5.50;2.00;;;;;;;4.16;100.00;100616.94;5003997;28;20198;-73
2023/12/28 03:44:52;;;;;;;2.77;1.63;;;;;;;4.26;100.00;100608.19;5002599;28;20211;-74
2023/12/28 03:47:19;;;;;;;3.13;1.57;;;;;;;4.34;100.00;100600.47;5003989;28;20198;-74
2023/12/28 03:49:46;;;;;;;2.07;1.63;;;;;;;4.43;100.00;100608.44;4998995;28;20225;-73
2023/12/28 03:52:13;;;;;;;2.43;1.30;;;;;;;4.53;100.00;100606.47;5003088;28;20211;-74
2023/12/28 03:54:40;;;;;;;2.27;1.30;;;;;;;4.65;100.00;100611.25;4998910;28;20198;-74
2023/12/28 03:57:06;;;;;;;2.53;1.43;;;;;;;4.79;99.95;100612.09;5015400;28;20714;-74
2023/12/28 03:59:33;;;;;;;3.13;1.50;;;;;;;4.86;100.00;100623.72;4999354;28;20225;-74
2023/12/28 04:01:59;;;;;;;2.10;1.47;;;;;;;4.95;99.59;100619.41;5000735;28;20918;-73
2023/12/28 04:04:26;;;;;;;1.60;1.20;;;;;;;5.03;100.00;100604.88;5004589;28;20552;-74
2023/12/28 04:06:53;;;;;;;1.50;1.20;;;;;;;5.11;99.01;100601.59;5002315;28;20207;-73
2023/12/28 04:09:20;;;;;;;3.77;1.43;;;;;;;5.18;100.00;100607.25;5001271;28;20208;-74
2023/12/28 04:11:47;;;;;;;2.47;1.50;;;;;;;5.26;99.44;100619.66;5000930;28;20207;-74
2023/12/28 04:14:13;;;;;;;3.10;1.40;;;;;;;5.31;100.00;100612.50;5001600;28;20262;-74
2023/12/28 04:16:41;;;;;;;1.50;1.10;;;;;;;5.37;100.00;100611.34;5003813;28;20195;-74
2023/12/28 04:19:10;;;;;;;1.90;1.27;;;;;;;5.43;98.60;100623.25;4999841;28;20676;-74
2023/12/28 04:21:36;;;;;;;1.83;1.10;;;;;;;5.48;100.00;100625.78;5001834;28;20201;-73
2023/12/28 04:24:06;;;;;;;1.87;1.23;;;;;;;5.54;97.01;100605.53;5000017;28;20291;-74
2023/12/28 04:26:33;;;;;;;1.43;1.10;;;;;;;5.62;98.38;100621.34;5004531;28;20608;-73
2023/12/28 04:29:00;;;;;;;1.77;1.30;;;;;;;5.70;99.94;100627.75;4999962;28;20203;-74
2023/12/28 04:31:26;;;;;;;1.43;1.17;;;;;;;5.76;100.00;100613.47;4996040;28;20217;-74
2023/12/28 04:33:53;;;;;;;0.97;0.97;;;;;;;5.83;98.40;100612.03;4998502;28;20293;-74
2023/12/28 04:36:19;;;;;;;1.63;1.10;;;;;;;5.95;94.65;100622.03;5000259;28;20259;-75
2023/12/28 04:38:46;;;;;;;1.63;1.00;;;;;;;6.03;96.33;100629.97;4994667;28;20243;-74
2023/12/28 04:41:13;;;;;;;1.50;1.00;;;;;;;6.14;95.11;100625.28;4999654;28;20224;-73
2023/12/28 04:43:40;;;;;;;1.23;1.13;;;;;;;6.25;93.76;100624.00;4998409;28;20200;-73
2023/12/28 04:46:06;;;;;;;0.83;0.80;;;;;;;6.32;94.28;100635.63;5016653;28;20320;-72
2023/12/28 04:48:33;;;;;;;1.37;1.00;;;;;;;6.43;97.90;100630.97;5001869;28;20268;-71
2023/12/28 04:51:02;;;;;;;0.97;0.80;;;;;;;6.55;94.15;100631.19;5001458;28;20222;-72
2023/12/28 04:53:29;;;;;;;1.30;0.93;;;;;;;6.67;100.00;100637.47;4997795;28;20200;-71
2023/12/28 04:55:56;;;;;;;2.50;1.10;;;;;;;6.79;100.00;100636.94;4997367;28;20211;-71
2023/12/28 04:58:24;;;;;;;3.10;1.43;;;;;;;6.85;95.46;100633.13;4996426;28;20299;-72
2023/12/28 05:00:50;;;;;;;1.30;1.10;;;;;;;6.95;97.45;100643.38;4998911;28;20223;-71
2023/12/28 05:03:18;;;;;;;1.90;1.40;;;;;;;7.02;98.97;100649.75;4998511;28;20243;-71
2023/12/28 05:05:45;;;;;;;1.30;1.00;;;;;;;7.11;95.17;100649.81;4995869;28;20763;-71
2023/12/28 05:08:12;;;;;;;1.00;1.00;;;;;;;7.18;95.83;100652.78;4998269;28;20203;-74
2023/12/28 05:10:38;;;;;;;1.30;1.07;;;;;;;7.24;94.42;100669.94;4998952;28;20218;-74
2023/12/28 05:13:05;;;;;;;1.40;1.20;;;;;;;7.32;94.36;100675.28;5000893;28;20203;-74
2023/12/28 05:15:32;;;;;;;1.60;1.40;;;;;;;7.38;90.46;100674.06;4999205;28;20192;-71
2023/12/28 05:17:59;;;;;;;1.53;1.00;;;;;;;7.47;95.13;100653.88;4993951;28;20224;-71
2023/12/28 05:20:25;;;;;;;1.63;1.20;;;;;;;7.51;92.25;100646.16;4996305;28;20230;-71
2023/12/28 05:22:51;;;;;;;1.50;1.40;;;;;;;7.58;96.00;100657.78;4996871;28;20206;-72
2023/12/28 05:25:18;;;;;;;1.47;1.37;;;;;;;7.65;91.97;100655.47;4997333;28;20244;-71
2023/12/28 05:27:44;;;;;;;1.80;1.17;;;;;;;7.70;95.09;100670.31;4999974;28;20194;-71
2023/12/28 05:30:11;;;;;;;1.53;1.20;;;;;;;7.76;98.04;100658.63;4997779;28;20361;-72
2023/12/28 05:32:39;;;;;;;1.37;1.00;;;;;;;7.78;92.67;100683.53;4995949;28;20222;-74
2023/12/28 05:35:06;;;;;;;1.40;1.00;;;;;;;7.81;95.64;100695.28;4992195;28;20204;-73
2023/12/28 05:37:33;;;;;;;3.77;1.47;;;;;;;7.83;96.48;100686.00;4996794;28;20615;-74
2023/12/28 05:39:59;;;;;;;1.40;1.30;;;;;;;7.87;93.59;100680.94;4998069;28;20719;-74
2023/12/28 05:42:25;;;;;;;1.23;1.10;;;;;;;7.90;93.27;100688.19;4998596;28;20194;-74
2023/12/28 05:44:52;;;;;;;1.20;1.10;;;;;;;7.91;94.77;100689.72;5002803;28;20199;-73
2023/12/28 05:47:18;;;;;;;3.20;1.43;;;;;;;7.94;94.54;100673.34;5002851;28;20202;-73
2023/12/28 05:49:46;;;;;;;1.20;1.10;;;;;;;7.95;92.03;100667.00;5001987;28;20226;-73
2023/12/28 05:52:14;;;;;;;2.03;1.23;;;;;;;7.95;92.76;100677.53;4999240;28;20201;-72
2023/12/28 05:54:42;;;;;;;5.10;1.10;;;;;;;7.96;96.02;100695.63;5005248;28;20682;-73
2023/12/28 05:57:08;;;;;;;3.30;1.50;;;;;;;7.97;92.96;100685.91;4999709;28;20229;-74
2023/12/28 05:59:38;;;;;;;1.50;1.40;;;;;;;7.99;93.19;100704.78;5002859;28;20229;-72
2023/12/28 06:02:04;;;;;;;1.63;1.30;;;;;;;8.02;88.49;100712.81;5001231;28;20210;-73
2023/12/28 06:04:31;;;;;;;2.07;1.20;;;;;;;8.08;91.46;100716.84;4997150;28;20194;-73
2023/12/28 06:06:58;;;;;;;1.60;1.10;;;;;;;8.10;89.41;100722.59;5002091;28;20207;-72
2023/12/28 06:09:27;;;;;;;1.70;1.33;;;;;;;8.14;92.38;100725.41;4995671;28;20200;-73
2023/12/28 06:11:53;;;;;;;1.50;1.40;;;;;;;8.19;91.08;100717.38;5001006;28;20202;-73
2023/12/28 06:14:20;;;;;;;2.63;1.23;;;;;;;8.23;92.58;100713.09;4998648;28;20206;-73
2023/12/28 06:16:46;;;;;;;1.73;1.50;;;;;;;8.31;88.81;100702.56;5002962;28;20207;-73
2023/12/28 06:19:13;;;;;;;1.73;1.30;;;;;;;8.30;86.72;100694.97;5000805;28;20223;-74
2023/12/28 06:21:39;;;;;;;2.07;1.40;;;;;;;8.30;87.92;100716.03;4999883;28;20265;-74
2023/12/28 06:24:07;;;;;;;2.33;1.60;;;;;;;8.30;85.49;100718.66;4998600;28;20307;-74
2023/12/28 06:26:34;;;;;;;2.90;1.70;;;;;;;8.34;84.58;100730.88;4999945;28;20215;-73
2023/12/28 06:29:00;;;;;;;1.60;1.17;;;;;;;8.36;87.27;100733.22;5000361;28;20194;-73
2023/12/28 06:31:27;;;;;;;1.67;1.53;;;;;;;8.38;89.44;100736.34;4999866;28;20288;-73
2023/12/28 06:33:53;;;;;;;2.10;1.30;;;;;;;8.39;87.46;100735.25;4998603;28;20211;-73
2023/12/28 06:36:20;;;;;;;1.47;1.27;;;;;;;8.41;89.36;100731.22;5004868;28;20204;-74
2023/12/28 06:38:46;;;;;;;2.20;1.50;;;;;;;8.42;87.92;100719.63;4998254;28;20223;-74
2023/12/28 06:41:14;;;;;;;1.80;1.53;;;;;;;8.46;85.16;100725.81;5000536;28;20234;-74
2023/12/28 06:43:40;;;;;;;1.83;1.43;;;;;;;8.49;84.19;100725.19;4997776;28;20214;-74
2023/12/28 06:46:07;;;;;;;3.30;1.63;;;;;;;8.49;84.63;100725.19;4998139;28;20207;-73
2023/12/28 06:48:33;;;;;;;2.17;1.70;;;;;;;8.49;83.81;100724.44;5000026;28;20212;-73
2023/12/28 06:51:00;;;;;;;1.60;1.43;;;;;;;8.49;85.10;100719.16;5000974;28;20223;-71
2023/12/28 06:53:26;;;;;;;4.13;1.67;;;;;;;8.48;85.50;100725.50;4993866;28;20202;-72
2023/12/28 06:55:52;;;;;;;1.70;1.30;;;;;;;8.48;85.84;100726.28;5002265;28;20207;-73
2023/12/28 06:58:20;;;;;;;1.60;1.50;;;;;;;8.46;88.12;100722.41;4999407;28;20737;-73
2023/12/28 07:00:46;;;;;;;2.00;1.50;;;;;;;8.46;85.15;100738.19;4997522;28;20670;-74
2023/12/28 07:03:13;;;;;;;1.97;1.50;;;;;;;8.43;88.75;100729.06;4993406;28;20703;-73
2023/12/28 07:05:39;;;;;;;3.47;1.50;;;;;;;8.44;88.14;100727.97;4998386;28;20200;-73
2023/12/28 07:08:06;;;;;;;1.53;1.43;;;;;;;8.43;85.19;100750.09;4995554;28;20202;-73
2023/12/28 07:10:32;;;;;;;2.00;1.57;;;;;;;8.43;91.29;100754.59;5004089;28;20220;-73
2023/12/28 07:12:59;;;;;;;3.77;1.40;;;;;;;8.42;85.30;100755.66;4995587;28;20206;-73
2023/12/28 07:15:26;;;;;;;2.73;1.67;;;;;;;8.42;84.83;100755.66;4996782;28;20856;-73
2023/12/28 07:17:53;;;;;;;1.67;1.40;;;;;;;8.40;87.69;100756.00;4994927;28;20206;-73
2023/12/28 07:20:19;;;;;;;2.23;1.50;;;;;;;8.38;89.17;100754.75;4995683;28;20218;-73
2023/12/28 07:22:46;;;;;;;1.70;1.57;;;;;;;8.36;88.68;100755.06;4997477;28;20207;-73
2023/12/28 07:25:12;;;;;;;1.97;1.37;;;;;;;8.34;89.08;100769.59;4997539;28;20205;-73
2023/12/28 07:27:38;;;;;;;2.50;1.60;;;;;;;8.32;90.06;100769.88;4999281;28;20204;-73
2023/12/28 07:30:07;;;;;;;2.53;1.70;;;;;;;8.29;87.69;100778.38;4998333;28;20598;-73
2023/12/28 07:32:35;;;;;;;2.20;1.30;;;;;;;8.28;89.29;100776.84;4997677;28;20212;-73
2023/12/28 07:35:01;;;;;;;1.80;1.70;;;;;;;8.24;85.04;100772.50;4997894;28;20200;-73
2023/12/28 07:37:28;;;;;;;2.70;1.60;;;;;;;8.23;83.69;100768.31;5001317;28;20200;-74
2023/12/28 07:39:54;;;;;;;3.77;1.80;;;;;;;8.22;89.66;100779.91;5006324;28;20219;-74
2023/12/28 07:42:20;;;;;;;1.73;1.63;;;;;;;8.19;87.90;100769.97;4997434;28;20471;-73
2023/12/28 07:44:47;;;;;;;4.47;1.70;;;;;;;8.16;89.36;100791.59;5019784;28;20694;-73
2023/12/28 07:47:14;;;;;;;2.30;1.60;;;;;;;8.15;89.97;100795.31;5005734;28;20209;-73
2023/12/28 07:49:42;;;;;;;3.23;1.77;;;;;;;8.16;90.59;100783.72;5013405;28;20596;-73
2023/12/28 07:52:08;;;;;;;4.37;1.80;;;;;;;8.14;90.39;100784.00;5003860;28;20223;-72
2023/12/28 07:54:34;;;;;;;2.30;1.60;;;;;;;8.14;90.72;100776.13;5006935;28;20199;-73
2023/12/28 07:57:01;;;;;;;2.63;1.90;;;;;;;8.16;88.99;100783.72;5014755;28;20214;-71
2023/12/28 07:59:27;;;;;;;3.97;1.97;;;;;;;8.17;91.72;100780.78;5018092;28;20201;-72
2023/12/28 08:01:54;;;;;;;3.93;2.00;;;;;;;8.18;89.79;100784.22;5031595;28;20712;-72
2023/12/28 08:04:20;;;;;;;3.37;1.60;;;;;;;8.18;90.22;100792.09;5021731;28;20204;-73
2023/12/28 08:06:48;;;;;;;2.20;1.70;;;;;;;8.16;86.14;100789.75;5022640;28;20214;-72
2023/12/28 08:09:14;;;;;;;4.13;2.00;;;;;;;8.20;90.70;100800.47;5020671;28;20190;-71
2023/12/28 08:11:41;;;;;;;2.97;1.60;;;;;;;8.19;87.71;100797.03;5005146;28;20209;-74
2023/12/28 08:14:08;;;;;;;2.00;1.80;;;;;;;8.20;87.69;100806.53;4999729;28;20243;-73
2023/12/28 08:16:35;;;;;;;2.17;1.57;;;;;;;8.25;84.74;100802.97;5001201;28;20236;-74
2023/12/28 08:19:01;;;;;;;1.80;1.50;;;;;;;8.25;87.90;100800.34;5018118;28;20307;-73
2023/12/28 08:21:27;;;;;;;2.47;1.60;;;;;;;8.26;86.00;100801.91;5008053;28;20214;-73
2023/12/28 08:23:55;;;;;;;2.23;1.50;;;;;;;8.26;89.05;100812.41;5001989;28;20284;-72
2023/12/28 08:26:21;;;;;;;1.77;1.60;;;;;;;8.26;88.00;100801.91;4996409;28;20195;-73
2023/12/28 08:28:48;;;;;;;2.30;1.90;;;;;;;8.28;88.31;100807.66;4999712;28;20192;-72
2023/12/28 08:31:14;;;;;;;2.63;2.07;;;;;;;8.30;87.61;100810.72;4993008;28;20223;-73
2023/12/28 08:33:41;;;;;;;2.00;1.80;;;;;;;8.30;85.91;100811.53;4998618;28;20201;-73
2023/12/28 08:36:08;;;;;;;2.83;1.80;;;;;;;8.32;86.81;100813.81;4997903;28;20259;-73
2023/12/28 08:38:35;;;;;;;2.50;1.50;;;;;;;8.35;86.39;100810.59;4996873;28;20226;-73
2023/12/28 08:41:03;;;;;;;1.73;1.43;;;;;;;8.36;88.83;100812.94;4998827;28;20577;-74
2023/12/28 08:43:29;;;;;;;5.23;1.70;;;;;;;8.39;90.14;100806.28;5001667;28;20192;-73
2023/12/28 08:45:56;;;;;;;3.07;2.00;;;;;;;8.39;94.01;100812.31;4995720;28;20245;-73
2023/12/28 08:48:22;;;;;;;2.27;1.70;;;;;;;8.42;89.13;100813.56;4996044;28;20222;-73
2023/12/28 08:50:49;;;;;;;2.00;1.60;;;;;;;8.46;86.91;100822.41;4999160;28;20227;-72
2023/12/28 08:53:15;;;;;;;3.20;1.90;;;;;;;8.47;88.65;100810.78;4993299;28;20199;-73
2023/12/28 08:55:42;;;;;;;2.00;1.63;;;;;;;8.46;90.92;100810.03;4998110;28;20713;-73
2023/12/28 08:58:10;;;;;;;2.67;1.90;;;;;;;8.47;89.45;100821.31;4995401;28;20202;-73
2023/12/28 09:00:36;;;;;;;3.83;1.83;;;;;;;8.47;88.62;100818.69;4994948;28;20216;-73
2023/12/28 09:03:03;;;;;;;2.40;1.80;;;;;;;8.49;88.37;100822.56;4994603;28;20334;-72
2023/12/28 09:05:29;;;;;;;4.60;2.47;;;;;;;8.50;90.42;100834.63;4995209;28;20239;-73
2023/12/28 09:07:55;;;;;;;3.20;2.90;;;;;;;8.51;90.30;100830.16;4996367;28;20203;-72
2023/12/28 09:10:22;;;;;;;2.40;2.03;;;;;;;8.50;91.20;100836.50;4998408;28;20228;-73
2023/12/28 09:12:48;;;;;;;2.03;1.63;;;;;;;8.51;89.05;100840.69;4992083;28;20223;-74
2023/12/28 09:15:16;;;;;;;2.63;2.07;;;;;;;8.52;91.80;100850.13;4993947;28;20210;-72
2023/12/28 09:17:42;;;;;;;2.83;1.70;;;;;;;8.51;87.42;100848.56;4996932;28;20214;-72
2023/12/28 09:20:11;;;;;;;3.00;1.80;;;;;;;8.53;93.84;100852.47;4987329;28;20329;-73
2023/12/28 09:22:38;;;;;;;3.77;1.80;;;;;;;8.54;90.78;100856.63;5012002;28;20295;-74
2023/12/28 09:25:05;;;;;;;3.17;2.00;;;;;;;8.55;89.87;100862.69;4992585;28;20222;-72
2023/12/28 09:27:31;;;;;;;2.47;2.10;;;;;;;8.55;90.63;100855.53;4995377;28;20202;-73
2023/12/28 09:29:57;;;;;;;1.63;1.50;;;;;;;8.56;90.35;100864.22;4997071;28;20222;-72
2023/12/28 09:32:25;;;;;;;2.70;1.70;;;;;;;8.56;92.77;100867.66;4990592;28;21198;-73
2023/12/28 09:34:51;;;;;;;3.77;2.20;;;;;;;8.56;89.81;100867.66;4990505;28;20238;-74
2023/12/28 09:37:18;;;;;;;1.80;1.70;;;;;;;8.56;89.72;100866.84;4992429;28;20213;-74
2023/12/28 09:39:44;;;;;;;2.23;1.70;;;;;;;8.56;89.38;100866.84;4995742;28;20231;-74
2023/12/28 09:42:22;;;;;;;3.03;1.83;;;;;;;8.57;92.50;100868.41;4998979;28;20283;-74
2023/12/28 09:44:48;;;;;;;2.17;1.83;;;;;;;8.58;89.79;100865.47;4995908;28;20529;-74
2023/12/28 09:47:17;;;;;;;2.37;1.83;;;;;;;8.61;90.88;100866.72;4997931;28;20200;-73
2023/12/28 09:49:46;;;;;;;3.03;1.50;;;;;;;8.64;91.71;100860.88;4994133;28;21009;-74
2023/12/28 09:52:12;;;;;;;2.53;2.00;;;;;;;8.65;91.74;100859.78;4993419;28;20212;-73
2023/12/28 09:54:38;;;;;;;3.33;2.33;;;;;;;8.67;90.41;100857.59;4992376;28;20217;-73
2023/12/28 09:57:06;;;;;;;2.77;1.90;;;;;;;8.67;90.13;100861.03;4989419;28;20205;-73
2023/12/28 09:59:33;;;;;;;2.00;1.70;;;;;;;8.68;91.07;100853.88;4994834;28;20240;-74
2023/12/28 10:02:01;;;;;;;5.33;2.40;;;;;;;8.70;94.64;100852.50;4995097;28;20222;-73
2023/12/28 10:04:29;;;;;;;3.07;1.80;;;;;;;8.70;90.85;100857.00;4992756;28;20684;-71
2023/12/28 10:06:57;;;;;;;2.77;2.07;;;;;;;8.71;91.62;100858.56;4995615;28;20667;-74
2023/12/28 10:09:26;;;;;;;3.30;1.70;;;;;;;8.73;92.29;100851.91;4995877;28;20638;-72
2023/12/28 10:11:53;;;;;;;3.77;1.93;;;;;;;8.74;91.95;100853.44;4993915;28;20625;-72
2023/12/28 10:14:20;;;;;;;3.83;2.17;;;;;;;8.75;91.75;100848.97;4992280;28;20689;-74
2023/12/28 10:16:48;;;;;;;2.63;2.00;;;;;;;8.77;92.12;100852.06;4993548;28;20212;-74
2023/12/28 10:19:14;;;;;;;3.27;2.00;;;;;;;8.77;87.39;100842.31;4995292;28;20568;-73
2023/12/28 10:21:41;;;;;;;3.80;2.03;;;;;;;8.79;90.41;100840.13;4993868;28;20190;-72
2023/12/28 10:24:10;;;;;;;3.30;2.00;;;;;;;8.80;92.98;100844.31;4995870;28;20199;-73
2023/12/28 10:26:37;;;;;;;2.30;1.70;;;;;;;8.82;89.06;100839.53;4993978;28;20204;-74
2023/12/28 10:29:03;;;;;;;2.73;2.30;;;;;;;8.84;91.74;100828.69;4996684;28;20582;-72
2023/12/28 10:31:30;;;;;;;3.20;2.00;;;;;;;8.86;91.83;100840.44;4997566;28;20273;-73
2023/12/28 10:33:59;;;;;;;3.07;1.87;;;;;;;8.86;91.01;100832.56;4997147;28;20204;-73
2023/12/28 10:36:27;;;;;;;2.27;2.03;;;;;;;8.88;91.39;100850.69;4997210;28;20679;-73
2023/12/28 10:38:54;;;;;;;2.07;1.70;;;;;;;8.88;91.18;100840.94;4998240;28;20214;-74
2023/12/28 10:41:23;;;;;;;3.63;2.10;;;;;;;8.88;89.77;100848.84;4999584;28;20424;-72
2023/12/28 10:44:03;;;;;;;1.83;1.73;;;;;;;8.90;91.08;100859.06;4998266;28;20216;-72
2023/12/28 10:46:32;;;;;;;2.83;2.00;;;;;;;8.91;93.43;100856.09;4992134;28;20209;-74
2023/12/28 10:49:02;;;;;;;2.20;2.00;;;;;;;8.92;90.07;100851.63;4997728;28;20204;-72
2023/12/28 10:51:29;;;;;;;2.20;2.00;;;;;;;8.92;91.10;100854.25;4995946;28;20323;-74
2023/12/28 10:54:03;;;;;;;3.27;1.63;;;;;;;8.94;90.33;100860.00;4996521;28;20193;-74
2023/12/28 10:56:36;;;;;;;2.17;1.97;;;;;;;8.94;91.28;100857.34;4994082;28;20701;-73
2023/12/28 10:59:12;;;;;;;3.90;2.40;;;;;;;8.94;95.70;100862.63;4994890;28;20209;-74
2023/12/28 11:01:42;;;;;;;3.30;2.07;;;;;;;8.94;91.57;100860.00;4993166;28;20220;-74
2023/12/28 11:04:19;;;;;;;2.93;2.40;;;;;;;8.94;93.35;100850.25;4994367;28;20281;-74
2023/12/28 11:06:47;;;;;;;3.87;2.30;;;;;;;8.91;92.96;100853.47;4997775;28;20211;-72
2023/12/28 11:09:16;;;;;;;3.50;2.13;;;;;;;8.91;92.86;100844.81;4993604;28;20224;-73
2023/12/28 11:11:44;;;;;;;2.07;1.90;;;;;;;8.89;92.79;100836.44;4998954;28;20719;-74
2023/12/28 11:14:12;;;;;;;4.03;2.03;;;;;;;8.88;91.58;100845.41;4994629;28;20200;-74
2023/12/28 11:16:39;;;;;;;2.10;1.90;;;;;;;8.86;91.74;100847.59;4993707;28;20222;-73
2023/12/28 11:19:06;;;;;;;2.83;2.17;;;;;;;8.84;95.17;100860.28;4996452;28;20213;-73
2023/12/28 11:21:34;;;;;;;2.93;2.10;;;;;;;8.79;92.99;100855.16;4995553;28;20221;-72
2023/12/28 11:24:01;;;;;;;2.87;2.57;;;;;;;8.77;95.57;100850.22;4993444;28;20207;-72
2023/12/28 11:26:28;;;;;;;3.47;2.30;;;;;;;8.74;95.94;100842.13;4996453;28;20195;-72
2023/12/28 11:29:02;;;;;;;3.60;1.90;;;;;;;8.73;94.45;100840.59;4999572;28;20276;-73